Beaver, Ohio
Current Conditions -  °F | °C
As of 6:14 AM on Wednesday 22 Oct 2014 (Local Time) from KRZT Reporting Station
Overcast Overcast  
Wind Chill: 37°   Ceiling: 1000
Heat Index: 43°   Visibility: 10mi
Dew Point: 41°   Wind: 9mph
Humidity: 93%   Direction: 350°N
Pressure: 30.2"   Gusts: NA
Location:  39.03°N, 82.82°W
Report Text: KRZT 221014Z AUTO 35008KT 10SM OVC010 06/05 A3020 RMK AO2
Loading
Personal Weather Stations






























Interactive Weather Map
Tropical Storm Tracking
New forecast layout! Learn more

10-Day Weather Forecast

Advertisements
Track Severe Weather on mobile